sensor_id;sensor_type;location;lat;lon;timestamp;P1;durP1;ratioP1;P2;durP2;ratioP2
46597;SDS011;32318;48.858;8.252;2023-09-19T00:03:10;2.53;;;0.80;;
46597;SDS011;32318;48.858;8.252;2023-09-19T00:11:11;4.60;;;0.63;;
46597;SDS011;32318;48.858;8.252;2023-09-19T00:19:12;3.22;;;0.68;;
46597;SDS011;32318;48.858;8.252;2023-09-19T00:27:13;1.90;;;0.60;;
46597;SDS011;32318;48.858;8.252;2023-09-19T00:35:13;5.70;;;1.20;;
46597;SDS011;32318;48.858;8.252;2023-09-19T00:43:15;0.80;;;0.55;;
46597;SDS011;32318;48.858;8.252;2023-09-19T00:51:16;1.52;;;0.47;;
46597;SDS011;32318;48.858;8.252;2023-09-19T00:59:20;1.50;;;0.60;;
46597;SDS011;32318;48.858;8.252;2023-09-19T01:07:22;2.80;;;0.73;;
46597;SDS011;32318;48.858;8.252;2023-09-19T01:15:28;1.73;;;0.70;;
46597;SDS011;32318;48.858;8.252;2023-09-19T01:32:23;5.53;;;0.90;;
46597;SDS011;32318;48.858;8.252;2023-09-19T01:40:25;1.58;;;0.52;;
46597;SDS011;32318;48.858;8.252;2023-09-19T01:48:33;12.30;;;1.02;;
46597;SDS011;32318;48.858;8.252;2023-09-19T01:56:42;3.08;;;0.82;;
46597;SDS011;32318;48.858;8.252;2023-09-19T02:04:50;12.95;;;0.88;;
46597;SDS011;32318;48.858;8.252;2023-09-19T02:12:51;1.02;;;0.70;;
46597;SDS011;32318;48.858;8.252;2023-09-19T02:20:52;2.70;;;0.77;;
46597;SDS011;32318;48.858;8.252;2023-09-19T02:28:53;4.43;;;0.70;;
46597;SDS011;32318;48.858;8.252;2023-09-19T02:36:54;2.13;;;0.55;;
46597;SDS011;32318;48.858;8.252;2023-09-19T02:44:54;2.08;;;0.80;;
46597;SDS011;32318;48.858;8.252;2023-09-19T02:52:56;6.35;;;0.77;;
46597;SDS011;32318;48.858;8.252;2023-09-19T03:00:57;3.13;;;0.70;;
46597;SDS011;32318;48.858;8.252;2023-09-19T03:08:57;6.63;;;1.20;;
46597;SDS011;32318;48.858;8.252;2023-09-19T03:17:04;3.10;;;1.20;;
46597;SDS011;32318;48.858;8.252;2023-09-19T03:25:05;4.03;;;0.93;;
46597;SDS011;32318;48.858;8.252;2023-09-19T03:33:07;4.85;;;1.35;;
46597;SDS011;32318;48.858;8.252;2023-09-19T03:41:08;5.90;;;1.30;;
46597;SDS011;32318;48.858;8.252;2023-09-19T03:49:08;3.22;;;1.13;;
46597;SDS011;32318;48.858;8.252;2023-09-19T03:57:09;5.15;;;1.17;;
46597;SDS011;32318;48.858;8.252;2023-09-19T04:05:09;2.50;;;1.00;;
46597;SDS011;32318;48.858;8.252;2023-09-19T04:13:10;6.40;;;1.42;;
46597;SDS011;32318;48.858;8.252;2023-09-19T04:21:11;6.22;;;1.20;;
46597;SDS011;32318;48.858;8.252;2023-09-19T04:29:11;8.15;;;1.40;;
46597;SDS011;32318;48.858;8.252;2023-09-19T04:37:13;9.68;;;1.25;;
46597;SDS011;32318;48.858;8.252;2023-09-19T04:45:15;4.45;;;1.70;;
46597;SDS011;32318;48.858;8.252;2023-09-19T04:53:15;10.98;;;1.60;;
46597;SDS011;32318;48.858;8.252;2023-09-19T05:01:17;7.47;;;1.70;;
46597;SDS011;32318;48.858;8.252;2023-09-19T05:09:17;3.67;;;1.40;;
46597;SDS011;32318;48.858;8.252;2023-09-19T05:17:19;6.00;;;1.77;;
46597;SDS011;32318;48.858;8.252;2023-09-19T05:25:20;10.52;;;1.60;;
46597;SDS011;32318;48.858;8.252;2023-09-19T05:33:20;5.10;;;1.55;;
46597;SDS011;32318;48.858;8.252;2023-09-19T05:41:20;11.07;;;1.90;;
46597;SDS011;32318;48.858;8.252;2023-09-19T05:49:21;11.88;;;2.20;;
46597;SDS011;32318;48.858;8.252;2023-09-19T05:57:21;4.43;;;1.58;;
46597;SDS011;32318;48.858;8.252;2023-09-19T06:05:22;7.33;;;1.80;;
46597;SDS011;32318;48.858;8.252;2023-09-19T06:13:24;8.65;;;1.67;;
46597;SDS011;32318;48.858;8.252;2023-09-19T06:21:26;7.78;;;1.90;;
46597;SDS011;32318;48.858;8.252;2023-09-19T06:29:27;12.00;;;1.90;;
46597;SDS011;32318;48.858;8.252;2023-09-19T06:37:28;10.68;;;2.20;;
46597;SDS011;32318;48.858;8.252;2023-09-19T06:45:28;7.50;;;2.05;;
46597;SDS011;32318;48.858;8.252;2023-09-19T06:53:29;5.63;;;1.58;;
46597;SDS011;32318;48.858;8.252;2023-09-19T07:01:31;6.05;;;1.80;;
46597;SDS011;32318;48.858;8.252;2023-09-19T07:09:32;11.75;;;1.73;;
46597;SDS011;32318;48.858;8.252;2023-09-19T07:17:32;6.38;;;1.45;;
46597;SDS011;32318;48.858;8.252;2023-09-19T07:25:33;6.45;;;1.80;;
46597;SDS011;32318;48.858;8.252;2023-09-19T07:33:36;2.58;;;1.27;;
46597;SDS011;32318;48.858;8.252;2023-09-19T07:41:36;3.75;;;1.17;;
46597;SDS011;32318;48.858;8.252;2023-09-19T07:49:37;7.67;;;0.93;;
46597;SDS011;32318;48.858;8.252;2023-09-19T07:57:37;3.08;;;1.17;;
46597;SDS011;32318;48.858;8.252;2023-09-19T08:05:38;6.70;;;1.38;;
46597;SDS011;32318;48.858;8.252;2023-09-19T08:13:38;7.47;;;1.73;;
46597;SDS011;32318;48.858;8.252;2023-09-19T08:21:43;3.78;;;1.10;;
46597;SDS011;32318;48.858;8.252;2023-09-19T08:29:47;3.72;;;1.20;;
46597;SDS011;32318;48.858;8.252;2023-09-19T08:37:47;4.57;;;1.20;;
46597;SDS011;32318;48.858;8.252;2023-09-19T08:45:48;3.97;;;1.10;;
46597;SDS011;32318;48.858;8.252;2023-09-19T08:53:51;3.85;;;1.00;;
46597;SDS011;32318;48.858;8.252;2023-09-19T09:01:54;2.83;;;1.10;;
46597;SDS011;32318;48.858;8.252;2023-09-19T09:09:56;4.78;;;1.30;;
46597;SDS011;32318;48.858;8.252;2023-09-19T09:17:56;5.20;;;1.13;;
46597;SDS011;32318;48.858;8.252;2023-09-19T09:25:59;5.43;;;1.13;;
46597;SDS011;32318;48.858;8.252;2023-09-19T09:34:23;5.07;;;1.05;;
46597;SDS011;32318;48.858;8.252;2023-09-19T09:43:01;4.60;;;1.00;;
46597;SDS011;32318;48.858;8.252;2023-09-19T10:08:10;8.93;;;1.15;;
46597;SDS011;32318;48.858;8.252;2023-09-19T11:07:57;6.13;;;1.20;;
46597;SDS011;32318;48.858;8.252;2023-09-19T11:16:04;20.73;;;2.92;;
46597;SDS011;32318;48.858;8.252;2023-09-19T11:33:15;5.22;;;1.27;;
46597;SDS011;32318;48.858;8.252;2023-09-19T11:41:36;3.03;;;0.98;;
46597;SDS011;32318;48.858;8.252;2023-09-19T11:49:41;5.65;;;1.05;;
46597;SDS011;32318;48.858;8.252;2023-09-19T11:57:44;7.63;;;1.50;;
46597;SDS011;32318;48.858;8.252;2023-09-19T12:05:44;5.30;;;1.27;;
46597;SDS011;32318;48.858;8.252;2023-09-19T12:13:45;2.28;;;0.90;;
46597;SDS011;32318;48.858;8.252;2023-09-19T12:21:53;7.15;;;1.15;;
46597;SDS011;32318;48.858;8.252;2023-09-19T12:29:58;4.93;;;1.27;;
46597;SDS011;32318;48.858;8.252;2023-09-19T12:37:59;5.28;;;1.17;;
46597;SDS011;32318;48.858;8.252;2023-09-19T12:45:59;4.82;;;1.02;;
46597;SDS011;32318;48.858;8.252;2023-09-19T12:54:00;4.73;;;0.97;;
46597;SDS011;32318;48.858;8.252;2023-09-19T13:02:04;9.95;;;1.33;;
46597;SDS011;32318;48.858;8.252;2023-09-19T13:10:13;9.00;;;1.25;;
46597;SDS011;32318;48.858;8.252;2023-09-19T13:18:20;7.97;;;2.30;;
46597;SDS011;32318;48.858;8.252;2023-09-19T13:26:21;1.60;;;0.80;;
46597;SDS011;32318;48.858;8.252;2023-09-19T13:34:22;3.30;;;0.68;;
46597;SDS011;32318;48.858;8.252;2023-09-19T13:42:24;3.60;;;0.70;;
46597;SDS011;32318;48.858;8.252;2023-09-19T13:50:26;3.15;;;0.77;;
46597;SDS011;32318;48.858;8.252;2023-09-19T13:58:29;4.10;;;0.80;;
46597;SDS011;32318;48.858;8.252;2023-09-19T14:06:31;2.27;;;1.37;;
46597;SDS011;32318;48.858;8.252;2023-09-19T14:14:31;5.38;;;1.00;;
46597;SDS011;32318;48.858;8.252;2023-09-19T14:22:31;5.32;;;0.88;;
46597;SDS011;32318;48.858;8.252;2023-09-19T14:30:31;4.35;;;1.05;;
46597;SDS011;32318;48.858;8.252;2023-09-19T14:38:35;2.53;;;0.70;;
46597;SDS011;32318;48.858;8.252;2023-09-19T14:46:38;2.22;;;0.80;;
46597;SDS011;32318;48.858;8.252;2023-09-19T14:54:38;2.20;;;0.73;;
46597;SDS011;32318;48.858;8.252;2023-09-19T15:02:41;6.65;;;0.90;;
46597;SDS011;32318;48.858;8.252;2023-09-19T15:10:41;2.75;;;0.82;;
46597;SDS011;32318;48.858;8.252;2023-09-19T15:18:49;1.45;;;0.70;;
46597;SDS011;32318;48.858;8.252;2023-09-19T15:26:52;2.30;;;0.60;;
46597;SDS011;32318;48.858;8.252;2023-09-19T15:34:53;2.08;;;0.60;;
46597;SDS011;32318;48.858;8.252;2023-09-19T15:42:54;3.08;;;0.93;;
46597;SDS011;32318;48.858;8.252;2023-09-19T15:50:56;4.85;;;0.73;;
46597;SDS011;32318;48.858;8.252;2023-09-19T15:58:56;3.70;;;0.88;;
46597;SDS011;32318;48.858;8.252;2023-09-19T16:06:56;3.60;;;0.85;;
46597;SDS011;32318;48.858;8.252;2023-09-19T16:14:57;2.20;;;0.70;;
46597;SDS011;32318;48.858;8.252;2023-09-19T16:22:57;1.38;;;0.80;;
46597;SDS011;32318;48.858;8.252;2023-09-19T16:30:58;2.13;;;0.80;;
46597;SDS011;32318;48.858;8.252;2023-09-19T16:38:59;2.60;;;0.80;;
46597;SDS011;32318;48.858;8.252;2023-09-19T16:47:00;1.95;;;0.60;;
46597;SDS011;32318;48.858;8.252;2023-09-19T16:55:02;4.15;;;0.80;;
46597;SDS011;32318;48.858;8.252;2023-09-19T17:03:03;2.13;;;0.60;;
46597;SDS011;32318;48.858;8.252;2023-09-19T17:11:05;3.22;;;0.90;;
46597;SDS011;32318;48.858;8.252;2023-09-19T17:27:12;2.67;;;0.77;;
46597;SDS011;32318;48.858;8.252;2023-09-19T17:35:13;2.33;;;0.70;;
46597;SDS011;32318;48.858;8.252;2023-09-19T17:51:18;4.75;;;0.68;;
46597;SDS011;32318;48.858;8.252;2023-09-19T17:59:19;2.25;;;0.73;;
46597;SDS011;32318;48.858;8.252;2023-09-19T18:07:19;3.00;;;0.70;;
46597;SDS011;32318;48.858;8.252;2023-09-19T18:15:19;10.95;;;0.88;;
46597;SDS011;32318;48.858;8.252;2023-09-19T18:23:20;3.78;;;0.90;;
46597;SDS011;32318;48.858;8.252;2023-09-19T18:31:20;4.20;;;1.00;;
46597;SDS011;32318;48.858;8.252;2023-09-19T18:39:21;4.30;;;1.10;;
46597;SDS011;32318;48.858;8.252;2023-09-19T18:47:23;2.15;;;1.08;;
46597;SDS011;32318;48.858;8.252;2023-09-19T18:55:28;4.73;;;2.07;;
46597;SDS011;32318;48.858;8.252;2023-09-19T19:03:28;4.28;;;1.40;;
46597;SDS011;32318;48.858;8.252;2023-09-19T19:11:29;6.10;;;1.33;;
46597;SDS011;32318;48.858;8.252;2023-09-19T19:19:30;2.15;;;1.13;;
46597;SDS011;32318;48.858;8.252;2023-09-19T19:27:31;3.15;;;1.00;;
46597;SDS011;32318;48.858;8.252;2023-09-19T19:35:31;3.83;;;1.40;;
46597;SDS011;32318;48.858;8.252;2023-09-19T19:43:33;14.68;;;1.20;;
46597;SDS011;32318;48.858;8.252;2023-09-19T19:51:36;5.05;;;1.05;;
46597;SDS011;32318;48.858;8.252;2023-09-19T19:59:38;1.67;;;1.17;;
46597;SDS011;32318;48.858;8.252;2023-09-19T20:07:38;5.78;;;1.08;;
46597;SDS011;32318;48.858;8.252;2023-09-19T20:15:39;3.88;;;1.38;;
46597;SDS011;32318;48.858;8.252;2023-09-19T20:23:40;4.40;;;1.52;;
46597;SDS011;32318;48.858;8.252;2023-09-19T20:31:42;11.90;;;1.33;;
46597;SDS011;32318;48.858;8.252;2023-09-19T20:48:09;8.60;;;1.40;;
46597;SDS011;32318;48.858;8.252;2023-09-19T20:56:10;3.53;;;1.27;;
46597;SDS011;32318;48.858;8.252;2023-09-19T21:04:12;2.10;;;1.15;;
46597;SDS011;32318;48.858;8.252;2023-09-19T21:12:12;2.88;;;1.23;;
46597;SDS011;32318;48.858;8.252;2023-09-19T21:20:14;3.53;;;1.33;;
46597;SDS011;32318;48.858;8.252;2023-09-19T21:28:17;1.92;;;1.10;;
46597;SDS011;32318;48.858;8.252;2023-09-19T21:36:18;3.63;;;1.40;;
46597;SDS011;32318;48.858;8.252;2023-09-19T21:44:22;3.25;;;1.45;;
46597;SDS011;32318;48.858;8.252;2023-09-19T21:52:23;3.42;;;1.45;;
46597;SDS011;32318;48.858;8.252;2023-09-19T22:00:24;4.35;;;1.33;;
46597;SDS011;32318;48.858;8.252;2023-09-19T22:08:35;6.70;;;1.23;;
46597;SDS011;32318;48.858;8.252;2023-09-19T22:16:36;4.00;;;1.13;;
46597;SDS011;32318;48.858;8.252;2023-09-19T22:24:38;7.43;;;1.30;;
46597;SDS011;32318;48.858;8.252;2023-09-19T22:32:39;2.85;;;1.17;;
46597;SDS011;32318;48.858;8.252;2023-09-19T22:40:40;12.75;;;1.45;;
46597;SDS011;32318;48.858;8.252;2023-09-19T22:48:43;2.05;;;1.23;;
46597;SDS011;32318;48.858;8.252;2023-09-19T22:56:46;5.57;;;1.17;;
46597;SDS011;32318;48.858;8.252;2023-09-19T23:04:51;8.48;;;1.60;;
46597;SDS011;32318;48.858;8.252;2023-09-19T23:12:52;4.28;;;1.25;;
46597;SDS011;32318;48.858;8.252;2023-09-19T23:20:55;2.88;;;1.25;;
46597;SDS011;32318;48.858;8.252;2023-09-19T23:29:04;4.75;;;1.20;;
46597;SDS011;32318;48.858;8.252;2023-09-19T23:37:07;2.60;;;1.30;;
46597;SDS011;32318;48.858;8.252;2023-09-19T23:45:08;2.88;;;1.38;;
46597;SDS011;32318;48.858;8.252;2023-09-19T23:53:09;3.95;;;1.20;;
